sensor_id;sensor_type;location;lat;lon;timestamp;P1;durP1;ratioP1;P2;durP2;ratioP2
76459;SDS011;65299;46.084;18.762;2024-02-26T00:01:53;38.57;;;20.10;;
76459;SDS011;65299;46.084;18.762;2024-02-26T00:04:54;36.33;;;20.13;;
76459;SDS011;65299;46.084;18.762;2024-02-26T00:07:54;39.30;;;20.30;;
76459;SDS011;65299;46.084;18.762;2024-02-26T00:10:56;41.97;;;21.10;;
76459;SDS011;65299;46.084;18.762;2024-02-26T00:13:56;38.80;;;20.33;;
76459;SDS011;65299;46.084;18.762;2024-02-26T00:16:57;37.38;;;20.88;;
76459;SDS011;65299;46.084;18.762;2024-02-26T00:19:58;38.17;;;19.67;;
76459;SDS011;65299;46.084;18.762;2024-02-26T00:22:58;37.35;;;19.30;;
76459;SDS011;65299;46.084;18.762;2024-02-26T00:25:59;37.43;;;19.93;;
76459;SDS011;65299;46.084;18.762;2024-02-26T00:28:59;35.90;;;19.17;;
76459;SDS011;65299;46.084;18.762;2024-02-26T00:32:00;37.43;;;19.80;;
76459;SDS011;65299;46.084;18.762;2024-02-26T00:35:00;33.70;;;18.73;;
76459;SDS011;65299;46.084;18.762;2024-02-26T00:38:00;36.27;;;19.87;;
76459;SDS011;65299;46.084;18.762;2024-02-26T00:41:03;41.97;;;21.23;;
76459;SDS011;65299;46.084;18.762;2024-02-26T00:44:03;45.27;;;21.63;;
76459;SDS011;65299;46.084;18.762;2024-02-26T00:47:04;42.83;;;21.33;;
76459;SDS011;65299;46.084;18.762;2024-02-26T00:50:04;41.70;;;20.70;;
76459;SDS011;65299;46.084;18.762;2024-02-26T00:53:05;39.00;;;18.50;;
76459;SDS011;65299;46.084;18.762;2024-02-26T00:56:05;40.67;;;20.10;;
76459;SDS011;65299;46.084;18.762;2024-02-26T00:59:06;38.53;;;19.60;;
76459;SDS011;65299;46.084;18.762;2024-02-26T01:02:07;38.37;;;19.43;;
76459;SDS011;65299;46.084;18.762;2024-02-26T01:05:07;42.17;;;20.55;;
76459;SDS011;65299;46.084;18.762;2024-02-26T01:08:11;40.73;;;21.43;;
76459;SDS011;65299;46.084;18.762;2024-02-26T01:11:11;41.28;;;20.45;;
76459;SDS011;65299;46.084;18.762;2024-02-26T01:14:12;36.57;;;19.47;;
76459;SDS011;65299;46.084;18.762;2024-02-26T01:17:12;35.03;;;18.13;;
76459;SDS011;65299;46.084;18.762;2024-02-26T01:20:13;37.20;;;19.30;;
76459;SDS011;65299;46.084;18.762;2024-02-26T01:23:13;36.43;;;19.10;;
76459;SDS011;65299;46.084;18.762;2024-02-26T01:26:13;35.87;;;19.47;;
76459;SDS011;65299;46.084;18.762;2024-02-26T01:29:14;38.20;;;19.83;;
76459;SDS011;65299;46.084;18.762;2024-02-26T01:32:14;38.37;;;19.27;;
76459;SDS011;65299;46.084;18.762;2024-02-26T01:35:15;36.57;;;19.93;;
76459;SDS011;65299;46.084;18.762;2024-02-26T01:38:15;39.60;;;20.75;;
76459;SDS011;65299;46.084;18.762;2024-02-26T01:41:16;39.00;;;19.50;;
76459;SDS011;65299;46.084;18.762;2024-02-26T01:44:16;35.55;;;19.13;;
76459;SDS011;65299;46.084;18.762;2024-02-26T01:47:17;36.30;;;19.03;;
76459;SDS011;65299;46.084;18.762;2024-02-26T01:50:17;36.17;;;19.03;;
76459;SDS011;65299;46.084;18.762;2024-02-26T01:53:18;37.05;;;19.50;;
76459;SDS011;65299;46.084;18.762;2024-02-26T01:56:20;38.95;;;20.02;;
76459;SDS011;65299;46.084;18.762;2024-02-26T01:59:22;35.97;;;19.42;;
76459;SDS011;65299;46.084;18.762;2024-02-26T02:02:22;37.43;;;19.60;;
76459;SDS011;65299;46.084;18.762;2024-02-26T02:05:23;36.93;;;19.63;;
76459;SDS011;65299;46.084;18.762;2024-02-26T02:08:25;40.37;;;20.73;;
76459;SDS011;65299;46.084;18.762;2024-02-26T02:11:25;38.75;;;21.23;;
76459;SDS011;65299;46.084;18.762;2024-02-26T02:14:26;40.30;;;21.37;;
76459;SDS011;65299;46.084;18.762;2024-02-26T02:17:27;44.00;;;22.77;;
76459;SDS011;65299;46.084;18.762;2024-02-26T02:20:34;40.38;;;20.52;;
76459;SDS011;65299;46.084;18.762;2024-02-26T02:23:35;41.90;;;20.37;;
76459;SDS011;65299;46.084;18.762;2024-02-26T02:26:35;42.60;;;20.95;;
76459;SDS011;65299;46.084;18.762;2024-02-26T02:29:36;38.83;;;19.37;;
76459;SDS011;65299;46.084;18.762;2024-02-26T02:32:37;41.88;;;20.15;;
76459;SDS011;65299;46.084;18.762;2024-02-26T02:35:41;37.57;;;18.73;;
76459;SDS011;65299;46.084;18.762;2024-02-26T02:38:48;43.65;;;20.42;;
76459;SDS011;65299;46.084;18.762;2024-02-26T02:41:52;42.83;;;19.92;;
76459;SDS011;65299;46.084;18.762;2024-02-26T02:44:53;44.40;;;21.43;;
76459;SDS011;65299;46.084;18.762;2024-02-26T02:47:53;40.87;;;19.83;;
76459;SDS011;65299;46.084;18.762;2024-02-26T02:50:54;38.35;;;20.13;;
76459;SDS011;65299;46.084;18.762;2024-02-26T02:53:55;44.20;;;21.00;;
76459;SDS011;65299;46.084;18.762;2024-02-26T02:56:55;43.33;;;20.73;;
76459;SDS011;65299;46.084;18.762;2024-02-26T02:59:56;38.60;;;19.40;;
76459;SDS011;65299;46.084;18.762;2024-02-26T03:02:56;40.77;;;19.27;;
76459;SDS011;65299;46.084;18.762;2024-02-26T03:05:56;36.57;;;18.50;;
76459;SDS011;65299;46.084;18.762;2024-02-26T03:08:57;43.40;;;19.67;;
76459;SDS011;65299;46.084;18.762;2024-02-26T03:11:57;39.60;;;19.47;;
76459;SDS011;65299;46.084;18.762;2024-02-26T03:14:58;40.20;;;18.10;;
76459;SDS011;65299;46.084;18.762;2024-02-26T03:17:58;38.17;;;19.27;;
76459;SDS011;65299;46.084;18.762;2024-02-26T03:20:59;41.10;;;19.65;;
76459;SDS011;65299;46.084;18.762;2024-02-26T03:23:59;37.53;;;18.80;;
76459;SDS011;65299;46.084;18.762;2024-02-26T03:26:59;36.97;;;19.27;;
76459;SDS011;65299;46.084;18.762;2024-02-26T03:30:00;40.50;;;18.67;;
76459;SDS011;65299;46.084;18.762;2024-02-26T03:33:00;35.40;;;18.75;;
76459;SDS011;65299;46.084;18.762;2024-02-26T03:36:01;38.73;;;19.13;;
76459;SDS011;65299;46.084;18.762;2024-02-26T03:39:02;39.88;;;18.50;;
76459;SDS011;65299;46.084;18.762;2024-02-26T03:42:07;35.33;;;18.23;;
76459;SDS011;65299;46.084;18.762;2024-02-26T03:45:07;37.22;;;18.38;;
76459;SDS011;65299;46.084;18.762;2024-02-26T03:48:09;39.63;;;18.70;;
76459;SDS011;65299;46.084;18.762;2024-02-26T03:51:09;36.47;;;19.17;;
76459;SDS011;65299;46.084;18.762;2024-02-26T03:54:10;36.53;;;18.83;;
76459;SDS011;65299;46.084;18.762;2024-02-26T03:57:10;32.15;;;17.52;;
76459;SDS011;65299;46.084;18.762;2024-02-26T04:00:11;32.70;;;18.00;;
76459;SDS011;65299;46.084;18.762;2024-02-26T04:03:13;34.63;;;17.02;;
76459;SDS011;65299;46.084;18.762;2024-02-26T04:06:13;32.28;;;15.88;;
76459;SDS011;65299;46.084;18.762;2024-02-26T04:09:14;33.37;;;17.00;;
76459;SDS011;65299;46.084;18.762;2024-02-26T04:12:14;36.50;;;18.43;;
76459;SDS011;65299;46.084;18.762;2024-02-26T04:15:15;36.90;;;17.53;;
76459;SDS011;65299;46.084;18.762;2024-02-26T04:18:15;35.75;;;17.30;;
76459;SDS011;65299;46.084;18.762;2024-02-26T04:21:16;36.97;;;18.17;;
76459;SDS011;65299;46.084;18.762;2024-02-26T04:24:16;35.83;;;18.30;;
76459;SDS011;65299;46.084;18.762;2024-02-26T04:27:16;33.57;;;17.83;;
76459;SDS011;65299;46.084;18.762;2024-02-26T04:30:17;32.55;;;16.50;;
76459;SDS011;65299;46.084;18.762;2024-02-26T04:33:18;31.70;;;17.50;;
76459;SDS011;65299;46.084;18.762;2024-02-26T04:36:18;35.47;;;17.47;;
76459;SDS011;65299;46.084;18.762;2024-02-26T04:39:18;34.05;;;17.27;;
76459;SDS011;65299;46.084;18.762;2024-02-26T04:42:19;32.80;;;17.10;;
76459;SDS011;65299;46.084;18.762;2024-02-26T04:45:19;36.80;;;18.30;;
76459;SDS011;65299;46.084;18.762;2024-02-26T04:48:19;42.17;;;18.63;;
76459;SDS011;65299;46.084;18.762;2024-02-26T04:51:20;35.77;;;18.10;;
76459;SDS011;65299;46.084;18.762;2024-02-26T04:54:20;38.28;;;17.90;;
76459;SDS011;65299;46.084;18.762;2024-02-26T04:57:21;37.40;;;19.03;;
76459;SDS011;65299;46.084;18.762;2024-02-26T05:00:22;35.33;;;17.48;;
76459;SDS011;65299;46.084;18.762;2024-02-26T05:03:22;39.63;;;19.07;;
76459;SDS011;65299;46.084;18.762;2024-02-26T05:06:23;40.20;;;18.57;;
76459;SDS011;65299;46.084;18.762;2024-02-26T05:09:23;45.17;;;20.67;;
76459;SDS011;65299;46.084;18.762;2024-02-26T05:12:23;41.33;;;20.70;;
76459;SDS011;65299;46.084;18.762;2024-02-26T05:15:24;45.43;;;20.40;;
76459;SDS011;65299;46.084;18.762;2024-02-26T05:18:24;74.10;;;32.80;;
76459;SDS011;65299;46.084;18.762;2024-02-26T05:21:25;56.97;;;28.17;;
76459;SDS011;65299;46.084;18.762;2024-02-26T05:24:25;52.53;;;24.30;;
76459;SDS011;65299;46.084;18.762;2024-02-26T05:27:26;50.55;;;22.27;;
76459;SDS011;65299;46.084;18.762;2024-02-26T05:30:26;36.63;;;18.90;;
76459;SDS011;65299;46.084;18.762;2024-02-26T05:33:28;35.88;;;16.83;;
76459;SDS011;65299;46.084;18.762;2024-02-26T05:36:28;33.57;;;17.07;;
76459;SDS011;65299;46.084;18.762;2024-02-26T05:39:33;33.65;;;17.63;;
76459;SDS011;65299;46.084;18.762;2024-02-26T05:42:33;34.40;;;18.33;;
76459;SDS011;65299;46.084;18.762;2024-02-26T05:45:33;32.97;;;18.07;;
76459;SDS011;65299;46.084;18.762;2024-02-26T05:48:34;35.08;;;18.10;;
76459;SDS011;65299;46.084;18.762;2024-02-26T05:51:34;35.57;;;17.47;;
76459;SDS011;65299;46.084;18.762;2024-02-26T05:54:35;33.03;;;16.40;;
76459;SDS011;65299;46.084;18.762;2024-02-26T05:57:35;35.87;;;17.00;;
76459;SDS011;65299;46.084;18.762;2024-02-26T06:00:36;39.95;;;20.73;;
76459;SDS011;65299;46.084;18.762;2024-02-26T06:03:36;39.53;;;20.17;;
76459;SDS011;65299;46.084;18.762;2024-02-26T06:06:36;43.87;;;24.27;;
76459;SDS011;65299;46.084;18.762;2024-02-26T06:09:37;35.10;;;18.13;;
76459;SDS011;65299;46.084;18.762;2024-02-26T06:12:37;37.55;;;17.88;;
76459;SDS011;65299;46.084;18.762;2024-02-26T06:15:38;37.17;;;18.27;;
76459;SDS011;65299;46.084;18.762;2024-02-26T06:18:38;35.33;;;18.40;;
76459;SDS011;65299;46.084;18.762;2024-02-26T06:21:38;41.27;;;20.73;;
76459;SDS011;65299;46.084;18.762;2024-02-26T06:24:39;36.00;;;19.98;;
76459;SDS011;65299;46.084;18.762;2024-02-26T06:27:39;35.97;;;20.17;;
76459;SDS011;65299;46.084;18.762;2024-02-26T06:30:40;32.13;;;17.03;;
76459;SDS011;65299;46.084;18.762;2024-02-26T06:33:40;33.67;;;17.67;;
76459;SDS011;65299;46.084;18.762;2024-02-26T06:36:40;36.63;;;18.38;;
76459;SDS011;65299;46.084;18.762;2024-02-26T06:39:41;31.97;;;16.33;;
76459;SDS011;65299;46.084;18.762;2024-02-26T06:42:42;32.67;;;17.83;;
76459;SDS011;65299;46.084;18.762;2024-02-26T06:45:47;28.38;;;15.27;;
76459;SDS011;65299;46.084;18.762;2024-02-26T06:48:48;29.38;;;15.85;;
76459;SDS011;65299;46.084;18.762;2024-02-26T06:51:49;26.50;;;14.82;;
76459;SDS011;65299;46.084;18.762;2024-02-26T06:54:49;25.80;;;14.73;;
76459;SDS011;65299;46.084;18.762;2024-02-26T06:57:52;24.75;;;14.25;;
76459;SDS011;65299;46.084;18.762;2024-02-26T07:00:53;25.67;;;13.80;;
76459;SDS011;65299;46.084;18.762;2024-02-26T07:03:53;26.33;;;13.20;;
76459;SDS011;65299;46.084;18.762;2024-02-26T07:06:54;26.52;;;14.98;;
76459;SDS011;65299;46.084;18.762;2024-02-26T07:09:54;23.83;;;13.63;;
76459;SDS011;65299;46.084;18.762;2024-02-26T07:12:55;26.50;;;14.20;;
76459;SDS011;65299;46.084;18.762;2024-02-26T07:15:55;23.90;;;13.30;;
76459;SDS011;65299;46.084;18.762;2024-02-26T07:18:56;25.85;;;12.98;;
76459;SDS011;65299;46.084;18.762;2024-02-26T07:21:58;23.53;;;13.80;;
76459;SDS011;65299;46.084;18.762;2024-02-26T07:25:01;24.40;;;13.85;;
76459;SDS011;65299;46.084;18.762;2024-02-26T07:28:01;22.83;;;12.90;;
76459;SDS011;65299;46.084;18.762;2024-02-26T07:31:01;30.52;;;16.50;;
76459;SDS011;65299;46.084;18.762;2024-02-26T07:34:03;27.97;;;16.27;;
76459;SDS011;65299;46.084;18.762;2024-02-26T07:37:03;26.38;;;14.82;;
76459;SDS011;65299;46.084;18.762;2024-02-26T07:40:04;26.03;;;14.87;;
76459;SDS011;65299;46.084;18.762;2024-02-26T07:43:05;26.02;;;14.88;;
76459;SDS011;65299;46.084;18.762;2024-02-26T07:46:06;21.43;;;12.20;;
76459;SDS011;65299;46.084;18.762;2024-02-26T07:49:06;18.57;;;10.97;;
76459;SDS011;65299;46.084;18.762;2024-02-26T07:52:08;23.83;;;11.65;;
76459;SDS011;65299;46.084;18.762;2024-02-26T07:55:08;20.63;;;12.27;;
76459;SDS011;65299;46.084;18.762;2024-02-26T07:58:09;21.80;;;13.48;;
76459;SDS011;65299;46.084;18.762;2024-02-26T08:01:12;21.77;;;11.67;;
76459;SDS011;65299;46.084;18.762;2024-02-26T08:04:14;21.88;;;10.38;;
76459;SDS011;65299;46.084;18.762;2024-02-26T08:07:14;19.53;;;10.57;;
76459;SDS011;65299;46.084;18.762;2024-02-26T08:10:15;18.35;;;10.63;;
76459;SDS011;65299;46.084;18.762;2024-02-26T08:13:15;19.30;;;10.80;;
76459;SDS011;65299;46.084;18.762;2024-02-26T08:16:15;19.83;;;11.03;;
76459;SDS011;65299;46.084;18.762;2024-02-26T08:19:16;18.93;;;11.10;;
76459;SDS011;65299;46.084;18.762;2024-02-26T08:22:17;17.60;;;10.95;;
76459;SDS011;65299;46.084;18.762;2024-02-26T08:25:18;20.07;;;11.10;;
76459;SDS011;65299;46.084;18.762;2024-02-26T08:28:18;17.15;;;10.82;;
76459;SDS011;65299;46.084;18.762;2024-02-26T08:31:19;24.40;;;12.30;;
76459;SDS011;65299;46.084;18.762;2024-02-26T08:34:20;65.78;;;34.00;;
76459;SDS011;65299;46.084;18.762;2024-02-26T08:37:20;63.67;;;33.10;;
76459;SDS011;65299;46.084;18.762;2024-02-26T08:40:20;68.80;;;35.63;;
76459;SDS011;65299;46.084;18.762;2024-02-26T08:43:21;58.03;;;30.45;;
76459;SDS011;65299;46.084;18.762;2024-02-26T08:46:21;119.90;;;56.20;;
76459;SDS011;65299;46.084;18.762;2024-02-26T08:49:22;124.77;;;56.73;;
76459;SDS011;65299;46.084;18.762;2024-02-26T08:52:23;67.22;;;32.03;;
76459;SDS011;65299;46.084;18.762;2024-02-26T08:55:24;103.38;;;43.35;;
76459;SDS011;65299;46.084;18.762;2024-02-26T08:58:25;58.33;;;27.73;;
76459;SDS011;65299;46.084;18.762;2024-02-26T09:01:27;28.40;;;14.70;;
76459;SDS011;65299;46.084;18.762;2024-02-26T09:04:27;23.87;;;13.93;;
76459;SDS011;65299;46.084;18.762;2024-02-26T09:07:28;25.43;;;13.17;;
76459;SDS011;65299;46.084;18.762;2024-02-26T09:10:28;19.90;;;10.80;;
76459;SDS011;65299;46.084;18.762;2024-02-26T09:13:29;14.00;;;7.95;;
76459;SDS011;65299;46.084;18.762;2024-02-26T09:16:29;16.40;;;8.87;;
76459;SDS011;65299;46.084;18.762;2024-02-26T09:19:30;13.40;;;7.68;;
76459;SDS011;65299;46.084;18.762;2024-02-26T09:22:30;21.57;;;12.87;;
76459;SDS011;65299;46.084;18.762;2024-02-26T09:25:31;75.73;;;37.03;;
76459;SDS011;65299;46.084;18.762;2024-02-26T09:28:33;68.45;;;34.08;;
76459;SDS011;65299;46.084;18.762;2024-02-26T09:31:37;21.35;;;12.02;;
76459;SDS011;65299;46.084;18.762;2024-02-26T09:34:40;80.20;;;45.70;;
76459;SDS011;65299;46.084;18.762;2024-02-26T09:37:41;20.98;;;12.18;;
76459;SDS011;65299;46.084;18.762;2024-02-26T09:40:43;43.47;;;25.45;;
76459;SDS011;65299;46.084;18.762;2024-02-26T09:43:44;16.93;;;9.23;;
76459;SDS011;65299;46.084;18.762;2024-02-26T09:46:47;35.13;;;18.08;;
76459;SDS011;65299;46.084;18.762;2024-02-26T09:49:49;11.27;;;6.70;;
76459;SDS011;65299;46.084;18.762;2024-02-26T09:52:55;13.35;;;8.05;;
76459;SDS011;65299;46.084;18.762;2024-02-26T09:55:59;9.10;;;5.13;;
76459;SDS011;65299;46.084;18.762;2024-02-26T09:59:00;19.30;;;12.85;;
76459;SDS011;65299;46.084;18.762;2024-02-26T10:02:04;18.65;;;12.70;;
76459;SDS011;65299;46.084;18.762;2024-02-26T10:05:07;39.00;;;20.02;;
76459;SDS011;65299;46.084;18.762;2024-02-26T10:08:10;49.60;;;26.03;;
76459;SDS011;65299;46.084;18.762;2024-02-26T10:11:12;28.80;;;12.73;;
76459;SDS011;65299;46.084;18.762;2024-02-26T10:14:14;8.55;;;5.30;;
76459;SDS011;65299;46.084;18.762;2024-02-26T10:17:15;19.65;;;9.48;;
76459;SDS011;65299;46.084;18.762;2024-02-26T10:20:16;47.47;;;26.20;;
76459;SDS011;65299;46.084;18.762;2024-02-26T10:23:18;23.75;;;12.55;;
76459;SDS011;65299;46.084;18.762;2024-02-26T10:26:18;120.10;;;64.83;;
76459;SDS011;65299;46.084;18.762;2024-02-26T10:29:20;112.65;;;59.00;;
76459;SDS011;65299;46.084;18.762;2024-02-26T10:32:21;25.20;;;14.13;;
76459;SDS011;65299;46.084;18.762;2024-02-26T10:35:22;19.97;;;12.30;;
76459;SDS011;65299;46.084;18.762;2024-02-26T10:38:22;9.40;;;5.73;;
76459;SDS011;65299;46.084;18.762;2024-02-26T10:41:23;12.88;;;7.43;;
76459;SDS011;65299;46.084;18.762;2024-02-26T10:44:26;8.05;;;4.70;;
76459;SDS011;65299;46.084;18.762;2024-02-26T10:47:28;10.07;;;6.00;;
76459;SDS011;65299;46.084;18.762;2024-02-26T10:50:33;8.15;;;4.28;;
76459;SDS011;65299;46.084;18.762;2024-02-26T10:53:34;11.32;;;4.78;;
76459;SDS011;65299;46.084;18.762;2024-02-26T10:56:36;10.85;;;4.82;;
76459;SDS011;65299;46.084;18.762;2024-02-26T10:59:39;8.47;;;4.60;;
76459;SDS011;65299;46.084;18.762;2024-02-26T11:02:41;6.25;;;4.13;;
76459;SDS011;65299;46.084;18.762;2024-02-26T11:05:44;6.88;;;4.50;;
76459;SDS011;65299;46.084;18.762;2024-02-26T11:08:49;8.93;;;4.28;;
76459;SDS011;65299;46.084;18.762;2024-02-26T11:11:50;7.88;;;4.45;;
76459;SDS011;65299;46.084;18.762;2024-02-26T11:14:54;7.27;;;4.83;;
76459;SDS011;65299;46.084;18.762;2024-02-26T11:17:56;15.20;;;8.43;;
76459;SDS011;65299;46.084;18.762;2024-02-26T11:20:57;9.00;;;4.18;;
76459;SDS011;65299;46.084;18.762;2024-02-26T11:23:59;11.23;;;5.45;;
76459;SDS011;65299;46.084;18.762;2024-02-26T11:27:02;8.53;;;5.13;;
76459;SDS011;65299;46.084;18.762;2024-02-26T11:30:05;13.10;;;6.25;;
76459;SDS011;65299;46.084;18.762;2024-02-26T11:33:10;8.80;;;4.72;;
76459;SDS011;65299;46.084;18.762;2024-02-26T11:36:12;8.18;;;4.40;;
76459;SDS011;65299;46.084;18.762;2024-02-26T11:39:14;9.55;;;5.10;;
76459;SDS011;65299;46.084;18.762;2024-02-26T11:42:16;13.33;;;7.03;;
76459;SDS011;65299;46.084;18.762;2024-02-26T11:48:46;21.17;;;8.70;;
76459;SDS011;65299;46.084;18.762;2024-02-26T11:51:50;12.03;;;5.97;;
76459;SDS011;65299;46.084;18.762;2024-02-26T11:54:52;6.20;;;4.43;;
76459;SDS011;65299;46.084;18.762;2024-02-26T11:57:54;27.65;;;10.60;;
76459;SDS011;65299;46.084;18.762;2024-02-26T12:00:55;13.70;;;6.53;;
76459;SDS011;65299;46.084;18.762;2024-02-26T12:03:57;10.25;;;5.97;;
76459;SDS011;65299;46.084;18.762;2024-02-26T12:07:00;8.67;;;4.97;;
76459;SDS011;65299;46.084;18.762;2024-02-26T12:13:29;10.05;;;5.20;;
76459;SDS011;65299;46.084;18.762;2024-02-26T12:16:39;8.45;;;4.50;;
76459;SDS011;65299;46.084;18.762;2024-02-26T12:19:42;18.00;;;9.43;;
76459;SDS011;65299;46.084;18.762;2024-02-26T12:22:46;8.95;;;4.60;;
76459;SDS011;65299;46.084;18.762;2024-02-26T12:25:49;12.70;;;7.13;;
76459;SDS011;65299;46.084;18.762;2024-02-26T12:28:50;7.53;;;5.00;;
76459;SDS011;65299;46.084;18.762;2024-02-26T12:31:50;9.63;;;5.43;;
76459;SDS011;65299;46.084;18.762;2024-02-26T12:34:51;14.02;;;6.60;;
76459;SDS011;65299;46.084;18.762;2024-02-26T12:37:52;10.90;;;5.30;;
76459;SDS011;65299;46.084;18.762;2024-02-26T12:40:53;9.77;;;5.20;;
76459;SDS011;65299;46.084;18.762;2024-02-26T12:43:54;25.50;;;12.87;;
76459;SDS011;65299;46.084;18.762;2024-02-26T12:47:01;13.27;;;6.50;;
76459;SDS011;65299;46.084;18.762;2024-02-26T12:50:03;21.13;;;10.33;;
76459;SDS011;65299;46.084;18.762;2024-02-26T12:53:04;23.42;;;12.05;;
76459;SDS011;65299;46.084;18.762;2024-02-26T12:56:06;22.10;;;10.27;;
76459;SDS011;65299;46.084;18.762;2024-02-26T12:59:08;13.30;;;6.82;;
76459;SDS011;65299;46.084;18.762;2024-02-26T13:02:09;15.43;;;7.60;;
76459;SDS011;65299;46.084;18.762;2024-02-26T13:05:10;9.80;;;5.67;;
76459;SDS011;65299;46.084;18.762;2024-02-26T13:08:19;7.55;;;4.22;;
76459;SDS011;65299;46.084;18.762;2024-02-26T13:11:20;7.10;;;3.58;;
76459;SDS011;65299;46.084;18.762;2024-02-26T13:14:22;8.70;;;5.33;;
76459;SDS011;65299;46.084;18.762;2024-02-26T13:17:22;7.25;;;4.03;;
76459;SDS011;65299;46.084;18.762;2024-02-26T13:20:25;8.82;;;4.93;;
76459;SDS011;65299;46.084;18.762;2024-02-26T13:23:28;10.10;;;5.47;;
76459;SDS011;65299;46.084;18.762;2024-02-26T13:26:28;11.50;;;4.75;;
76459;SDS011;65299;46.084;18.762;2024-02-26T13:29:29;8.77;;;4.67;;
76459;SDS011;65299;46.084;18.762;2024-02-26T13:32:31;4.70;;;2.73;;
76459;SDS011;65299;46.084;18.762;2024-02-26T13:35:32;4.72;;;2.72;;
76459;SDS011;65299;46.084;18.762;2024-02-26T13:38:35;7.43;;;4.50;;
76459;SDS011;65299;46.084;18.762;2024-02-26T13:41:35;6.47;;;3.33;;
76459;SDS011;65299;46.084;18.762;2024-02-26T13:44:35;7.70;;;3.73;;
76459;SDS011;65299;46.084;18.762;2024-02-26T13:47:39;12.40;;;5.90;;
76459;SDS011;65299;46.084;18.762;2024-02-26T13:50:41;6.32;;;2.28;;
76459;SDS011;65299;46.084;18.762;2024-02-26T13:53:43;6.57;;;3.08;;
76459;SDS011;65299;46.084;18.762;2024-02-26T13:56:43;8.00;;;3.77;;
76459;SDS011;65299;46.084;18.762;2024-02-26T13:59:44;5.37;;;2.70;;
76459;SDS011;65299;46.084;18.762;2024-02-26T14:02:44;4.10;;;2.65;;
76459;SDS011;65299;46.084;18.762;2024-02-26T14:05:45;5.13;;;2.80;;
76459;SDS011;65299;46.084;18.762;2024-02-26T14:08:45;6.07;;;2.93;;
76459;SDS011;65299;46.084;18.762;2024-02-26T14:11:46;10.10;;;3.00;;
76459;SDS011;65299;46.084;18.762;2024-02-26T14:14:46;5.57;;;3.80;;
76459;SDS011;65299;46.084;18.762;2024-02-26T14:17:48;6.47;;;3.60;;
76459;SDS011;65299;46.084;18.762;2024-02-26T14:20:54;5.22;;;3.28;;
76459;SDS011;65299;46.084;18.762;2024-02-26T14:23:55;4.43;;;2.83;;
76459;SDS011;65299;46.084;18.762;2024-02-26T14:26:55;6.28;;;3.30;;
76459;SDS011;65299;46.084;18.762;2024-02-26T14:29:56;8.43;;;3.43;;
76459;SDS011;65299;46.084;18.762;2024-02-26T14:32:56;9.43;;;3.97;;
76459;SDS011;65299;46.084;18.762;2024-02-26T14:35:57;5.85;;;3.00;;
76459;SDS011;65299;46.084;18.762;2024-02-26T14:38:57;12.17;;;5.10;;
76459;SDS011;65299;46.084;18.762;2024-02-26T14:41:58;17.20;;;6.90;;
76459;SDS011;65299;46.084;18.762;2024-02-26T14:44:59;19.38;;;7.72;;
76459;SDS011;65299;46.084;18.762;2024-02-26T14:47:59;13.63;;;5.50;;
76459;SDS011;65299;46.084;18.762;2024-02-26T14:51:02;9.63;;;4.88;;
76459;SDS011;65299;46.084;18.762;2024-02-26T14:54:02;4.93;;;3.30;;
76459;SDS011;65299;46.084;18.762;2024-02-26T14:57:03;5.95;;;3.72;;
76459;SDS011;65299;46.084;18.762;2024-02-26T15:00:04;9.03;;;4.50;;
76459;SDS011;65299;46.084;18.762;2024-02-26T15:03:07;4.97;;;3.60;;
76459;SDS011;65299;46.084;18.762;2024-02-26T15:06:08;4.10;;;2.78;;
76459;SDS011;65299;46.084;18.762;2024-02-26T15:09:08;12.20;;;5.43;;
76459;SDS011;65299;46.084;18.762;2024-02-26T15:12:09;13.70;;;6.55;;
76459;SDS011;65299;46.084;18.762;2024-02-26T15:15:10;17.63;;;8.60;;
76459;SDS011;65299;46.084;18.762;2024-02-26T15:18:10;18.23;;;9.70;;
76459;SDS011;65299;46.084;18.762;2024-02-26T15:21:15;15.15;;;8.45;;
76459;SDS011;65299;46.084;18.762;2024-02-26T15:24:16;16.43;;;9.27;;
76459;SDS011;65299;46.084;18.762;2024-02-26T15:27:17;17.55;;;11.85;;
76459;SDS011;65299;46.084;18.762;2024-02-26T15:30:17;11.67;;;7.63;;
76459;SDS011;65299;46.084;18.762;2024-02-26T15:33:18;10.50;;;6.10;;
76459;SDS011;65299;46.084;18.762;2024-02-26T15:36:18;9.15;;;5.88;;
76459;SDS011;65299;46.084;18.762;2024-02-26T15:39:19;7.10;;;4.80;;
76459;SDS011;65299;46.084;18.762;2024-02-26T15:42:21;7.55;;;5.15;;
76459;SDS011;65299;46.084;18.762;2024-02-26T15:45:21;6.97;;;4.50;;
76459;SDS011;65299;46.084;18.762;2024-02-26T15:48:24;7.43;;;4.60;;
76459;SDS011;65299;46.084;18.762;2024-02-26T15:51:25;8.43;;;4.83;;
76459;SDS011;65299;46.084;18.762;2024-02-26T15:54:25;8.33;;;4.80;;
76459;SDS011;65299;46.084;18.762;2024-02-26T15:57:26;7.70;;;4.88;;
76459;SDS011;65299;46.084;18.762;2024-02-26T16:00:26;8.80;;;4.77;;
76459;SDS011;65299;46.084;18.762;2024-02-26T16:03:26;9.63;;;5.30;;
76459;SDS011;65299;46.084;18.762;2024-02-26T16:09:54;13.55;;;5.55;;
76459;SDS011;65299;46.084;18.762;2024-02-26T16:12:55;12.27;;;6.67;;
76459;SDS011;65299;46.084;18.762;2024-02-26T16:16:03;13.05;;;6.28;;
76459;SDS011;65299;46.084;18.762;2024-02-26T16:19:08;14.65;;;7.82;;
76459;SDS011;65299;46.084;18.762;2024-02-26T16:22:11;15.55;;;8.13;;
76459;SDS011;65299;46.084;18.762;2024-02-26T16:25:14;13.70;;;7.60;;
76459;SDS011;65299;46.084;18.762;2024-02-26T16:28:14;13.67;;;7.70;;
76459;SDS011;65299;46.084;18.762;2024-02-26T16:31:15;15.63;;;8.02;;
76459;SDS011;65299;46.084;18.762;2024-02-26T16:34:15;14.97;;;8.17;;
76459;SDS011;65299;46.084;18.762;2024-02-26T16:37:16;18.93;;;9.37;;
76459;SDS011;65299;46.084;18.762;2024-02-26T16:40:17;17.77;;;9.77;;
76459;SDS011;65299;46.084;18.762;2024-02-26T16:43:17;25.93;;;10.17;;
76459;SDS011;65299;46.084;18.762;2024-02-26T16:46:18;19.97;;;11.50;;
76459;SDS011;65299;46.084;18.762;2024-02-26T16:49:18;26.80;;;12.17;;
76459;SDS011;65299;46.084;18.762;2024-02-26T16:52:19;26.08;;;12.20;;
76459;SDS011;65299;46.084;18.762;2024-02-26T16:55:19;34.90;;;16.53;;
76459;SDS011;65299;46.084;18.762;2024-02-26T16:58:20;39.27;;;18.63;;
76459;SDS011;65299;46.084;18.762;2024-02-26T17:01:23;33.53;;;15.05;;
76459;SDS011;65299;46.084;18.762;2024-02-26T17:04:23;43.03;;;19.47;;
76459;SDS011;65299;46.084;18.762;2024-02-26T17:07:24;42.67;;;22.37;;
76459;SDS011;65299;46.084;18.762;2024-02-26T17:10:24;40.22;;;20.77;;
76459;SDS011;65299;46.084;18.762;2024-02-26T17:13:25;42.87;;;23.53;;
76459;SDS011;65299;46.084;18.762;2024-02-26T17:16:28;51.00;;;26.95;;
76459;SDS011;65299;46.084;18.762;2024-02-26T17:19:29;50.58;;;24.20;;
76459;SDS011;65299;46.084;18.762;2024-02-26T17:22:29;42.40;;;24.70;;
76459;SDS011;65299;46.084;18.762;2024-02-26T17:25:30;49.22;;;25.73;;
76459;SDS011;65299;46.084;18.762;2024-02-26T17:28:30;54.80;;;29.97;;
76459;SDS011;65299;46.084;18.762;2024-02-26T17:31:31;62.60;;;34.30;;
76459;SDS011;65299;46.084;18.762;2024-02-26T17:34:31;66.82;;;35.75;;
76459;SDS011;65299;46.084;18.762;2024-02-26T17:37:32;69.87;;;40.27;;
76459;SDS011;65299;46.084;18.762;2024-02-26T17:40:33;70.57;;;43.22;;
76459;SDS011;65299;46.084;18.762;2024-02-26T17:43:34;82.93;;;44.50;;